Aviation Digital Data Service (ADDS)

Output produced by METARs form (0015 UTC 29 July 2016)
found at http://aviationweather.gov/adds/metars/
 
KGNV 282320Z 2900/2924 30005KT P6SM VCTS SCT050CB 
     FM290100 24004KT P6SM SCT050 SCT250